Impacts TAF Board INFO
FOR SITUATIONAL AWARENESS. NOT TO BE USED FOR FLIGHT PLANNING PURPOSES.
IDs:

KLAS - Las Vegas/McCarran I, NV, US

Issued at 0316 UTC 22 Jun 2018
Updated at 0317 UTC 22 Jun 2018
Potential Impact None Slight Moderate High
Time0256Z 22/04Z 22/05Z 22/06Z 22/07Z 22/08Z 22/09Z 22/10Z 22/11Z 22/12Z 22/13Z 22/14Z 22/15Z 22/16Z>>
Type OBS PRVL PRVL PRVL PRVL PRVL PRVL PRVL PRVL PRVL PRVL PRVL PRVL PRVL
VIS 10 >6 >6 >6 >6 >6 >6 >6 >6 >6 >6 >6 >6 >6
CIG -- -- -- -- -- -- -- -- -- -- -- -- -- --
Cover CLR SKC SKC SKC SKC SKC SKC SKC SKC SKC SKC SKC SKC SKC
FltCat VFR VFR VFR VFR VFR VFR VFR VFR VFR VFR VFR VFR VFR VFR
WX -- -- -- -- -- -- -- -- -- -- -- -- -- --
WDir 220 210 210 210 210 210 210 210 210 210 210 210 VRB VRB
WSpd 12 10 10 10 10 10 10 10 10 10 10 10 6 6
WGst -- 16 16 16 16 16 16 16 16 16 16 16 -- --

Raw TAF
KLAS 220316Z 2203/2306 21010G16KT P6SM SKC
  FM221500 VRB06KT P6SM SKC
  FM221900 05006KT P6SM SKC
  FM222200 12006KT P6SM SKC
  FM230300 23006KT P6SM SKC


Raw METAR
KLAS 220256Z 22012KT 10SM CLR 42/M09 A2974 RMK AO2 SLP036 T04171083 56004
KLAS 220156Z 23013KT 10SM CLR 43/M08 A2974 RMK AO2 SLP036 T04281083
KLAS 220056Z 20014G20KT 10SM CLR 44/M08 A2974 RMK AO2 SLP035 T04391078

METAR Board
Radar Display
Forecast Discussion

FOR SITUATIONAL AWARENESS. NOT TO BE USED FOR FLIGHT PLANNING PURPOSES.